Time,TemperatureF,DewpointF,PressureIn,WindDirection,WindDirectionDegrees,WindSpeedMPH,WindSpeedGustMPH,Humidity,HourlyPrecipIn,Conditions,Clouds,dailyrainin,SoftwareType,DateUTC
2013-09-19 00:03:00,79.2,64.6,29.71,SSE,155,10.4,10.4,61,0.00,CLR,,0.00,WeatherDisplay:10.37,2013-09-19 05:03:00,
2013-09-19 00:08:00,79.4,64.8,29.70,SE,140,9.2,9.2,61,0.00,CLR,,0.00,WeatherDisplay:10.37,2013-09-19 05:08:00,
2013-09-19 00:13:00,79.4,64.3,29.70,ESE,121,10.4,10.4,60,0.00,CLR,,0.00,WeatherDisplay:10.37,2013-09-19 05:13:00,
2013-09-19 00:18:00,79.3,64.2,29.70,SE,145,12.7,12.7,60,0.00,CLR,,0.00,WeatherDisplay:10.37,2013-09-19 05:18:00,
2013-09-19 00:23:00,79.3,64.2,29.70,South,182,12.7,12.7,60,0.00,CLR,,0.00,WeatherDisplay:10.37,2013-09-19 05:23:00,
2013-09-19 00:28:00,79.2,64.1,29.70,SSE,162,9.2,9.2,60,0.00,CLR,,0.00,WeatherDisplay:10.37,2013-09-19 05:28:00,
2013-09-19 00:33:00,79.2,64.1,29.70,ESE,120,10.4,10.4,60,0.00,CLR,,0.00,WeatherDisplay:10.37,2013-09-19 05:33:00,
2013-09-19 00:38:00,79.0,64.4,29.70,SE,135,9.0,9.0,61,0.00,CLR,,0.00,WeatherDisplay:10.37,2013-09-19 05:38:00,
2013-09-19 00:43:00,79.1,64.0,29.70,SSE,152,9.2,9.2,60,0.00,CLR,,0.00,WeatherDisplay:10.37,2013-09-19 05:43:00,
2013-09-19 00:48:00,79.0,63.9,29.70,SSE,155,11.5,11.5,60,0.00,CLR,,0.00,WeatherDisplay:10.37,2013-09-19 05:48:00,
2013-09-19 00:53:00,79.1,64.0,29.70,South,183,13.0,13.0,60,0.00,CLR,,0.00,WeatherDisplay:10.37,2013-09-19 05:53:00,
2013-09-19 00:58:00,78.9,63.8,29.70,ESE,114,13.8,13.8,60,0.00,CLR,,0.00,WeatherDisplay:10.37,2013-09-19 05:58:00,
2013-09-19 01:03:00,78.8,64.2,29.70,SSE,161,13.8,13.8,61,0.00,CLR,,0.00,WeatherDisplay:10.37,2013-09-19 06:03:00,
2013-09-19 01:08:00,78.5,63.9,29.70,SSE,150,10.4,10.4,61,0.00,CLR,,0.00,WeatherDisplay:10.37,2013-09-19 06:08:00,
2013-09-19 01:13:00,78.4,63.8,29.70,ESE,117,11.5,11.5,61,0.00,CLR,,0.00,WeatherDisplay:10.37,2013-09-19 06:13:00,
2013-09-19 01:18:00,78.3,63.7,29.71,South,178,8.1,8.1,61,0.00,CLR,,0.00,WeatherDisplay:10.37,2013-09-19 06:18:00,
2013-09-19 01:23:00,78.1,64.0,29.70,South,180,13.8,13.8,62,0.00,CLR,,0.00,WeatherDisplay:10.37,2013-09-19 06:23:00,
2013-09-19 01:28:00,78.0,63.9,29.71,SSE,150,10.4,10.4,62,0.00,CLR,,0.00,WeatherDisplay:10.37,2013-09-19 06:28:00,
2013-09-19 01:33:00,77.9,63.8,29.71,SE,136,10.4,10.4,62,0.00,CLR,,0.00,WeatherDisplay:10.37,2013-09-19 06:33:00,
2013-09-19 01:39:00,77.8,63.7,29.71,SSE,167,6.9,6.9,62,0.00,CLR,,0.00,WeatherDisplay:10.37,2013-09-19 06:39:00,
2013-09-19 01:44:00,77.6,64.0,29.71,South,175,10.4,10.4,63,0.00,CLR,,0.00,WeatherDisplay:10.37,2013-09-19 06:44:00,
2013-09-19 01:49:00,77.5,63.9,29.71,SSE,157,11.5,11.5,63,0.00,CLR,,0.00,WeatherDisplay:10.37,2013-09-19 06:49:00,
2013-09-19 01:54:00,77.5,63.9,29.71,South,185,13.8,13.8,63,0.00,CLR,,0.00,WeatherDisplay:10.37,2013-09-19 06:54:00,
2013-09-19 01:59:00,77.3,63.7,29.71,South,182,9.2,9.2,63,0.00,CLR,,0.00,WeatherDisplay:10.37,2013-09-19 06:59:00,
2013-09-19 02:04:00,77.2,63.6,29.71,SE,145,10.4,10.4,63,0.00,CLR,,0.00,WeatherDisplay:10.37,2013-09-19 07:04:00,
2013-09-19 02:09:00,77.1,64.0,29.71,SSE,153,6.9,6.9,64,0.00,CLR,,0.00,WeatherDisplay:10.37,2013-09-19 07:09:00,
2013-09-19 02:14:00,77.0,63.9,29.71,ESE,111,9.2,9.2,64,0.00,CLR,,0.00,WeatherDisplay:10.37,2013-09-19 07:14:00,
2013-09-19 02:19:00,76.9,63.8,29.71,ESE,120,11.5,11.5,64,0.00,CLR,,0.00,WeatherDisplay:10.37,2013-09-19 07:19:00,
2013-09-19 02:24:00,76.8,63.7,29.71,SSW,192,10.4,10.4,64,0.00,CLR,,0.00,WeatherDisplay:10.37,2013-09-19 07:24:00,
2013-09-19 02:29:00,76.7,63.6,29.71,SE,128,9.2,9.2,64,0.00,CLR,,0.00,WeatherDisplay:10.37,2013-09-19 07:29:00,
2013-09-19 02:34:00,76.6,63.5,29.71,SSE,161,10.4,10.4,64,0.00,CLR,,0.00,WeatherDisplay:10.37,2013-09-19 07:34:00,
2013-09-19 02:39:00,76.6,63.5,29.70,South,186,5.8,5.8,64,0.00,CLR,,0.00,WeatherDisplay:10.37,2013-09-19 07:39:00,
2013-09-19 02:44:00,76.5,63.4,29.70,South,191,13.8,13.8,64,0.00,CLR,,0.00,WeatherDisplay:10.37,2013-09-19 07:44:00,
2013-09-19 02:49:00,76.5,63.9,29.71,SSE,168,15.0,15.0,65,0.00,CLR,,0.00,WeatherDisplay:10.37,2013-09-19 07:49:00,
2013-09-19 02:54:00,76.4,63.3,29.71,South,180,6.9,6.9,64,0.00,CLR,,0.00,WeatherDisplay:10.37,2013-09-19 07:54:00,
2013-09-19 02:59:00,76.4,63.8,29.71,SSE,158,4.6,4.6,65,0.00,CLR,,0.00,WeatherDisplay:10.37,2013-09-19 07:59:00,
2013-09-19 03:04:00,76.4,63.3,29.72,SSW,201,5.8,5.8,64,0.00,CLR,,0.00,WeatherDisplay:10.37,2013-09-19 08:04:00,
2013-09-19 03:09:00,76.5,63.4,29.72,SSE,161,8.1,8.1,64,0.00,CLR,,0.00,WeatherDisplay:10.37,2013-09-19 08:09:00,
2013-09-19 03:14:00,76.5,63.4,29.72,SSE,155,9.2,9.2,64,0.00,CLR,,0.00,WeatherDisplay:10.37,2013-09-19 08:14:00,
2013-09-19 03:19:00,76.4,63.3,29.71,SSW,203,6.9,6.9,64,0.00,CLR,,0.00,WeatherDisplay:10.37,2013-09-19 08:19:00,
2013-09-19 03:24:00,76.4,63.3,29.72,SSE,167,6.9,6.9,64,0.00,CLR,,0.00,WeatherDisplay:10.37,2013-09-19 08:24:00,
2013-09-19 03:29:00,76.3,63.2,29.72,SSE,157,8.1,8.1,64,0.00,CLR,,0.00,WeatherDisplay:10.37,2013-09-19 08:29:00,
2013-09-19 03:34:00,76.3,63.2,29.72,SE,135,11.5,11.5,64,0.00,CLR,,0.00,WeatherDisplay:10.37,2013-09-19 08:34:00,
2013-09-19 03:39:00,76.3,63.2,29.72,SSE,149,11.5,11.5,64,0.00,CLR,,0.00,WeatherDisplay:10.37,2013-09-19 08:39:00,
2013-09-19 03:44:00,76.4,62.9,29.72,SSW,194,6.9,6.9,63,0.00,CLR,,0.00,WeatherDisplay:10.37,2013-09-19 08:44:00,
2013-09-19 03:49:00,76.3,62.8,29.72,South,188,9.2,9.2,63,0.00,CLR,,0.00,WeatherDisplay:10.37,2013-09-19 08:49:00,
2013-09-19 03:54:00,76.2,63.1,29.72,SSW,202,8.1,8.1,64,0.00,CLR,,0.00,WeatherDisplay:10.37,2013-09-19 08:54:00,
2013-09-19 03:59:00,76.2,63.1,29.72,SSW,194,4.6,4.6,64,0.00,CLR,,0.00,WeatherDisplay:10.37,2013-09-19 08:59:00,
2013-09-19 04:04:00,76.0,62.9,29.72,SSW,198,4.6,4.6,64,0.00,CLR,,0.00,WeatherDisplay:10.37,2013-09-19 09:04:00,
2013-09-19 04:09:00,75.8,62.8,29.72,East,90,4.6,4.6,64,0.00,CLR,,0.00,WeatherDisplay:10.37,2013-09-19 09:09:00,
2013-09-19 04:14:00,75.7,63.1,29.72,SSE,150,6.0,6.0,65,0.00,CLR,,0.00,WeatherDisplay:10.37,2013-09-19 09:14:00,
2013-09-19 04:19:00,75.6,63.0,29.72,SSE,162,7.0,7.0,65,0.00,CLR,,0.00,WeatherDisplay:10.37,2013-09-19 09:19:00,
2013-09-19 04:24:00,75.5,62.9,29.72,SSW,201,5.8,5.8,65,0.00,CLR,,0.00,WeatherDisplay:10.37,2013-09-19 09:24:00,
2013-09-19 04:29:00,75.3,63.2,29.73,SSE,163,5.0,5.0,66,0.00,CLR,,0.00,WeatherDisplay:10.37,2013-09-19 09:29:00,
2013-09-19 04:34:00,75.1,63.0,29.73,SW,217,5.8,5.8,66,0.00,CLR,,0.00,WeatherDisplay:10.37,2013-09-19 09:34:00,
2013-09-19 04:39:00,75.1,63.4,29.73,South,180,6.9,6.9,67,0.00,CLR,,0.00,WeatherDisplay:10.37,2013-09-19 09:39:00,
2013-09-19 04:45:00,74.9,63.2,29.73,South,186,3.5,3.5,67,0.00,CLR,,0.00,WeatherDisplay:10.37,2013-09-19 09:45:00,
2013-09-19 04:50:00,74.7,63.0,29.73,SSE,165,3.5,3.5,67,0.00,CLR,,0.00,WeatherDisplay:10.37,2013-09-19 09:50:00,
2013-09-19 04:55:00,74.5,63.2,29.73,WSW,242,5.0,5.0,68,0.00,CLR,,0.00,WeatherDisplay:10.37,2013-09-19 09:55:00,
2013-09-19 05:00:00,74.4,63.1,29.73,WSW,253,4.0,4.0,68,0.00,CLR,,0.00,WeatherDisplay:10.37,2013-09-19 10:00:00,
2013-09-19 05:05:00,74.3,63.5,29.73,SW,219,3.0,3.0,69,0.00,CLR,,0.00,WeatherDisplay:10.37,2013-09-19 10:05:00,
2013-09-19 05:10:00,74.1,63.3,29.73,SW,220,4.6,4.6,69,0.00,CLR,,0.00,WeatherDisplay:10.37,2013-09-19 10:10:00,
2013-09-19 05:15:00,74.0,63.6,29.73,SW,215,5.8,5.8,70,0.00,CLR,,0.00,WeatherDisplay:10.37,2013-09-19 10:15:00,
2013-09-19 05:20:00,73.8,63.4,29.73,SW,225,6.9,6.9,70,0.00,CLR,,0.00,WeatherDisplay:10.37,2013-09-19 10:20:00,
2013-09-19 05:25:00,73.8,63.4,29.73,SSW,213,6.0,6.0,70,0.00,CLR,,0.00,WeatherDisplay:10.37,2013-09-19 10:25:00,
2013-09-19 05:30:00,73.6,63.6,29.73,SW,234,3.5,3.5,71,0.00,CLR,,0.00,WeatherDisplay:10.37,2013-09-19 10:30:00,
2013-09-19 05:35:00,73.5,63.5,29.72,SSW,213,3.5,3.5,71,0.00,CLR,,0.00,WeatherDisplay:10.37,2013-09-19 10:35:00,
2013-09-19 05:40:00,73.3,63.7,29.73,SW,222,3.5,3.5,72,0.00,CLR,,0.00,WeatherDisplay:10.37,2013-09-19 10:40:00,
2013-09-19 05:45:00,73.1,63.5,29.73,West,266,3.5,3.5,72,0.00,CLR,,0.00,WeatherDisplay:10.37,2013-09-19 10:45:00,
2013-09-19 05:50:00,72.8,63.6,29.74,West,259,3.5,3.5,73,0.00,CLR,,0.00,WeatherDisplay:10.37,2013-09-19 10:50:00,
2013-09-19 05:55:00,72.6,63.4,29.74,SW,236,2.3,2.3,73,0.00,CLR,,0.00,WeatherDisplay:10.37,2013-09-19 10:55:00,
2013-09-19 06:00:00,72.4,63.6,29.73,WSW,258,2.3,2.3,74,0.00,CLR,,0.00,WeatherDisplay:10.37,2013-09-19 11:00:00,
2013-09-19 06:05:00,72.2,63.4,29.73,WSW,255,2.3,2.3,74,0.00,CLR,,0.00,WeatherDisplay:10.37,2013-09-19 11:05:00,
2013-09-19 06:10:00,71.9,63.5,29.73,WSW,255,2.3,2.3,75,0.00,CLR,,0.00,WeatherDisplay:10.37,2013-09-19 11:10:00,
2013-09-19 06:15:00,71.5,63.5,29.73,WSW,255,2.3,2.3,76,0.00,CLR,,0.00,WeatherDisplay:10.37,2013-09-19 11:15:00,
2013-09-19 06:20:00,71.2,63.6,29.73,WSW,255,1.2,1.2,77,0.00,CLR,,0.00,WeatherDisplay:10.37,2013-09-19 11:20:00,
2013-09-19 06:25:00,70.8,63.6,29.73,WSW,257,2.3,2.3,78,0.00,CLR,,0.00,WeatherDisplay:10.37,2013-09-19 11:25:00,
2013-09-19 06:30:00,70.3,63.5,29.73,WSW,257,1.2,0.0,79,0.00,CLR,,0.00,WeatherDisplay:10.37,2013-09-19 11:30:00,
2013-09-19 06:35:00,70.0,63.5,29.74,WSW,257,1.2,1.2,80,0.00,CLR,,0.00,WeatherDisplay:10.37,2013-09-19 11:35:00,
2013-09-19 06:40:00,69.5,63.4,29.74,WSW,257,2.3,2.3,81,0.00,CLR,,0.00,WeatherDisplay:10.37,2013-09-19 11:40:00,
2013-09-19 06:45:00,69.1,63.4,29.74,NNW,339,2.3,2.3,82,0.00,CLR,,0.00,WeatherDisplay:10.37,2013-09-19 11:45:00,
2013-09-19 06:50:00,68.7,63.3,29.75,NNW,339,1.2,0.0,83,0.00,CLR,,0.00,WeatherDisplay:10.37,2013-09-19 11:50:00,
2013-09-19 06:55:00,68.5,63.5,29.75,NNW,339,1.2,1.2,84,0.00,CLR,,0.00,WeatherDisplay:10.37,2013-09-19 11:55:00,
2013-09-19 07:00:00,68.3,63.3,29.76,NNW,339,0.0,1.0,84,0.00,CLR,,0.00,WeatherDisplay:10.37,2013-09-19 12:00:00,
2013-09-19 07:05:00,68.1,63.1,29.76,NNW,339,0.0,0.0,84,0.00,CLR,,0.00,WeatherDisplay:10.37,2013-09-19 12:05:00,
2013-09-19 07:10:00,68.1,63.4,29.77,NNW,333,1.0,3.0,85,0.00,CLR,,0.00,WeatherDisplay:10.37,2013-09-19 12:10:00,
2013-09-19 07:15:00,68.0,63.3,29.78,NW,313,2.3,2.3,85,0.00,CLR,,0.00,WeatherDisplay:10.37,2013-09-19 12:15:00,
2013-09-19 07:20:00,68.1,63.4,29.78,NW,314,2.3,2.3,85,0.00,CLR,,0.00,WeatherDisplay:10.37,2013-09-19 12:20:00,
2013-09-19 07:25:00,68.6,63.6,29.79,WNW,294,3.0,6.0,84,0.00,CLR,,0.00,WeatherDisplay:10.37,2013-09-19 12:25:00,
2013-09-19 07:30:00,69.3,63.9,29.79,West,266,3.5,3.5,83,0.00,CLR,,0.00,WeatherDisplay:10.37,2013-09-19 12:30:00,
2013-09-19 07:35:00,69.7,64.0,29.79,West,272,3.5,3.5,82,0.00,CLR,,0.00,WeatherDisplay:10.37,2013-09-19 12:35:00,
2013-09-19 07:40:00,69.9,64.1,29.79,West,272,1.0,2.0,82,0.00,CLR,,0.00,WeatherDisplay:10.37,2013-09-19 12:40:00,
2013-09-19 07:45:00,70.0,64.2,29.79,West,274,2.3,2.3,82,0.00,CLR,,0.00,WeatherDisplay:10.37,2013-09-19 12:45:00,
2013-09-19 07:50:00,70.1,64.0,29.79,West,280,2.0,2.0,81,0.00,CLR,,0.00,WeatherDisplay:10.37,2013-09-19 12:50:00,
2013-09-19 07:55:00,70.2,63.7,29.78,West,279,1.0,3.0,80,0.00,CLR,,0.00,WeatherDisplay:10.37,2013-09-19 12:55:00,
2013-09-19 08:00:00,70.4,64.3,29.78,WNW,282,1.0,3.0,81,0.00,CLR,,0.00,WeatherDisplay:10.37,2013-09-19 13:00:00,
2013-09-19 08:05:00,70.6,64.1,29.78,NW,318,2.3,2.3,80,0.00,CLR,,0.00,WeatherDisplay:10.37,2013-09-19 13:05:00,
2013-09-19 08:10:00,70.7,63.9,29.78,WNW,290,2.0,5.0,79,0.00,CLR,,0.00,WeatherDisplay:10.37,2013-09-19 13:10:00,
2013-09-19 08:15:00,70.9,63.7,29.78,WNW,295,2.3,2.3,78,0.00,CLR,,0.00,WeatherDisplay:10.37,2013-09-19 13:15:00,
2013-09-19 08:20:00,71.0,63.1,29.78,WNW,292,3.0,6.0,76,0.00,CLR,,0.00,WeatherDisplay:10.37,2013-09-19 13:20:00,
2013-09-19 08:25:00,71.1,62.8,29.78,WNW,287,2.0,6.0,75,0.00,CLR,,0.00,WeatherDisplay:10.37,2013-09-19 13:25:00,
2013-09-19 08:30:00,71.4,62.3,29.77,West,277,8.1,8.1,73,0.00,CLR,,0.00,WeatherDisplay:10.37,2013-09-19 13:30:00,
2013-09-19 08:35:00,71.6,62.1,29.76,WNW,288,1.0,3.0,72,0.00,CLR,,0.00,WeatherDisplay:10.37,2013-09-19 13:35:00,
2013-09-19 08:40:00,71.7,62.2,29.76,NW,317,2.3,2.3,72,0.00,CLR,,0.00,WeatherDisplay:10.37,2013-09-19 13:40:00,
2013-09-19 08:45:00,71.9,62.0,29.75,NW,317,0.0,0.0,71,0.00,CLR,,0.00,WeatherDisplay:10.37,2013-09-19 13:45:00,
2013-09-19 08:50:00,72.1,62.6,29.75,NW,317,0.0,2.0,72,0.00,CLR,,0.00,WeatherDisplay:10.37,2013-09-19 13:50:00,
2013-09-19 08:55:00,72.5,62.6,29.75,NW,317,2.3,2.3,71,0.00,CLR,,0.00,WeatherDisplay:10.37,2013-09-19 13:55:00,
2013-09-19 09:00:00,72.8,63.2,29.75,NW,317,2.3,2.3,72,0.00,CLR,,0.00,WeatherDisplay:10.37,2013-09-19 14:00:00,
2013-09-19 09:05:00,73.1,63.5,29.75,NW,319,0.0,2.0,72,0.00,CLR,,0.00,WeatherDisplay:10.37,2013-09-19 14:05:00,
2013-09-19 09:10:00,73.5,63.5,29.75,NNW,329,2.3,2.3,71,0.00,CLR,,0.00,WeatherDisplay:10.37,2013-09-19 14:10:00,
2013-09-19 09:15:00,73.9,63.9,29.75,SSE,159,4.6,4.6,71,0.00,CLR,,0.00,WeatherDisplay:10.37,2013-09-19 14:15:00,
2013-09-19 09:20:00,74.2,63.4,29.75,SSE,150,3.0,6.0,69,0.00,CLR,,0.00,WeatherDisplay:10.37,2013-09-19 14:20:00,
2013-09-19 09:25:00,74.5,63.2,29.75,SE,146,4.6,4.9,68,0.00,CLR,,0.00,WeatherDisplay:10.37,2013-09-19 14:25:00,
2013-09-19 09:30:00,74.7,63.4,29.75,SE,137,5.0,9.0,68,0.00,CLR,,0.00,WeatherDisplay:10.37,2013-09-19 14:30:00,
2013-09-19 09:35:00,75.0,63.7,29.75,SE,137,3.0,9.0,68,0.00,CLR,,0.00,WeatherDisplay:10.37,2013-09-19 14:35:00,
2013-09-19 09:40:00,75.4,64.1,29.75,SE,138,8.1,8.1,68,0.00,CLR,,0.00,WeatherDisplay:10.37,2013-09-19 14:40:00,
2013-09-19 09:45:00,75.5,64.2,29.76,SSE,152,5.0,8.0,68,0.00,CLR,,0.00,WeatherDisplay:10.37,2013-09-19 14:45:00,
2013-09-19 09:50:00,75.6,64.3,29.78,SSE,161,5.8,5.8,68,0.00,CLR,,0.00,WeatherDisplay:10.37,2013-09-19 14:50:00,
2013-09-19 09:55:00,75.4,63.2,29.81,SSW,203,9.0,14.0,66,0.00,CLR,,0.00,WeatherDisplay:10.37,2013-09-19 14:55:00,
2013-09-19 10:00:00,74.8,63.9,29.84,West,263,12.0,22.0,69,0.00,CLR,,0.00,WeatherDisplay:10.37,2013-09-19 15:00:00,
2013-09-19 10:05:00,73.6,63.2,29.85,West,262,10.0,20.0,70,0.00,CLR,,0.00,WeatherDisplay:10.37,2013-09-19 15:05:00,
2013-09-19 10:10:00,72.2,62.3,29.84,West,271,12.7,12.7,71,0.00,CLR,,0.00,WeatherDisplay:10.37,2013-09-19 15:10:00,
2013-09-19 10:15:00,71.1,62.4,29.84,West,271,10.0,14.0,74,0.01,RA,,0.01,WeatherDisplay:10.37,2013-09-19 15:15:00,
2013-09-19 10:20:00,68.4,62.0,29.83,WSW,253,11.5,11.5,80,0.04,RA,,0.05,WeatherDisplay:10.37,2013-09-19 15:20:00,
2013-09-19 10:25:00,67.2,62.2,29.82,WNW,285,3.0,12.0,84,0.00,RA,,0.07,WeatherDisplay:10.37,2013-09-19 15:25:00,
2013-09-19 10:30:00,66.6,62.9,29.79,WNW,301,1.0,3.0,88,0.00,RA,,0.10,WeatherDisplay:10.37,2013-09-19 15:30:00,
2013-09-19 10:35:00,66.2,63.2,29.78,NNE,27,2.0,4.0,90,0.00,RA,,0.13,WeatherDisplay:10.37,2013-09-19 15:35:00,
2013-09-19 10:40:00,65.8,62.8,29.79,SE,130,1.0,4.0,90,0.00,RA,,0.13,WeatherDisplay:10.37,2013-09-19 15:40:00,
2013-09-19 10:45:00,65.7,63.0,29.79,ESE,120,1.0,4.0,91,0.00,,,0.13,WeatherDisplay:10.37,2013-09-19 15:45:00,
2013-09-19 10:50:00,65.9,62.9,29.79,East,101,4.6,4.6,90,0.13,CLR,,0.13,WeatherDisplay:10.37,2013-09-19 15:50:00,
2013-09-19 10:55:00,66.1,63.7,29.79,SE,131,1.0,4.0,92,0.00,CLR,,0.13,WeatherDisplay:10.37,2013-09-19 15:55:00,
2013-09-19 11:00:00,66.4,64.3,29.78,East,90,1.2,1.2,93,0.13,CLR,,0.13,WeatherDisplay:10.37,2013-09-19 16:00:00,
2013-09-19 11:05:00,66.7,64.6,29.78,ESE,115,1.2,0.0,93,0.13,CLR,,0.13,WeatherDisplay:10.37,2013-09-19 16:05:00,
2013-09-19 11:10:00,66.9,64.8,29.79,SE,124,0.0,0.0,93,0.00,CLR,,0.13,WeatherDisplay:10.37,2013-09-19 16:10:00,
2013-09-19 11:15:00,67.2,65.4,29.80,NNW,342,2.3,2.3,94,0.13,CLR,,0.13,WeatherDisplay:10.37,2013-09-19 16:15:00,
2013-09-19 11:20:00,67.4,65.3,29.81,West,277,7.0,7.0,93,0.09,CLR,,0.13,WeatherDisplay:10.37,2013-09-19 16:20:00,
2013-09-19 11:25:00,67.7,65.9,29.81,West,281,3.0,6.0,94,0.00,CLR,,0.13,WeatherDisplay:10.37,2013-09-19 16:25:00,
2013-09-19 11:30:00,68.1,66.0,29.82,NNW,341,3.5,3.5,93,0.03,CLR,,0.13,WeatherDisplay:10.37,2013-09-19 16:30:00,
2013-09-19 11:35:00,68.2,65.8,29.81,NW,313,2.3,2.3,92,0.00,CLR,,0.13,WeatherDisplay:10.37,2013-09-19 16:35:00,
2013-09-19 11:40:00,68.2,65.4,29.83,WNW,294,3.0,7.0,91,0.00,CLR,,0.13,WeatherDisplay:10.37,2013-09-19 16:40:00,
2013-09-19 11:45:00,68.4,65.4,29.84,WNW,285,8.1,8.1,90,0.00,CLR,,0.13,WeatherDisplay:10.37,2013-09-19 16:45:00,
2013-09-19 11:50:00,68.3,64.9,29.85,West,259,10.4,10.4,89,0.00,CLR,,0.13,WeatherDisplay:10.37,2013-09-19 16:50:00,
2013-09-19 11:55:00,68.2,65.2,29.84,WNW,282,7.0,12.0,90,0.00,CLR,,0.13,WeatherDisplay:10.37,2013-09-19 16:55:00,
2013-09-19 12:05:00,68.3,64.6,29.84,NW,315,10.4,10.4,88,0.00,CLR,,0.13,WeatherDisplay:10.37,2013-09-19 17:05:00,
2013-09-19 12:10:00,68.2,64.5,29.83,WNW,301,10.4,10.4,88,0.00,CLR,,0.13,WeatherDisplay:10.37,2013-09-19 17:10:00,
2013-09-19 12:15:00,68.2,64.5,29.83,NNW,333,4.6,4.6,88,0.00,CLR,,0.13,WeatherDisplay:10.37,2013-09-19 17:15:00,
2013-09-19 12:20:00,68.3,64.6,29.83,NW,323,6.9,6.9,88,0.00,CLR,,0.13,WeatherDisplay:10.37,2013-09-19 17:20:00,
2013-09-19 12:25:00,68.5,64.5,29.83,WNW,290,5.8,5.8,87,0.00,CLR,,0.13,WeatherDisplay:10.37,2013-09-19 17:25:00,
2013-09-19 12:30:00,68.8,65.1,29.84,WNW,288,8.1,8.1,88,0.00,CLR,,0.13,WeatherDisplay:10.37,2013-09-19 17:30:00,
2013-09-19 12:35:00,68.8,64.8,29.87,NW,317,9.2,9.2,87,0.00,CLR,,0.13,WeatherDisplay:10.37,2013-09-19 17:35:00,
2013-09-19 12:40:00,68.8,64.1,29.87,West,273,16.1,16.1,85,0.00,CLR,,0.13,WeatherDisplay:10.37,2013-09-19 17:40:00,
2013-09-19 12:45:00,68.6,64.2,29.87,West,272,12.7,12.7,86,0.00,CLR,,0.13,WeatherDisplay:10.37,2013-09-19 17:45:00,
2013-09-19 12:50:00,68.5,64.5,29.86,WSW,246,4.6,4.6,87,0.00,CLR,,0.13,WeatherDisplay:10.37,2013-09-19 17:50:00,
2013-09-19 12:55:00,68.5,64.5,29.86,NW,315,8.1,8.1,87,0.00,CLR,,0.13,WeatherDisplay:10.37,2013-09-19 17:55:00,
2013-09-19 13:00:00,68.6,64.2,29.87,WNW,288,10.4,10.4,86,0.00,CLR,,0.13,WeatherDisplay:10.37,2013-09-19 18:00:00,
2013-09-19 13:05:00,68.6,64.2,29.87,WNW,287,11.5,11.5,86,0.00,CLR,,0.13,WeatherDisplay:10.37,2013-09-19 18:05:00,
2013-09-19 13:10:00,68.6,64.6,29.86,NW,316,8.1,8.1,87,0.00,CLR,,0.13,WeatherDisplay:10.37,2013-09-19 18:10:00,
2013-09-19 13:15:00,68.6,63.9,29.87,WNW,297,6.0,12.0,85,0.00,CLR,,0.13,WeatherDisplay:10.37,2013-09-19 18:15:00,
2013-09-19 13:20:00,68.6,63.9,29.87,West,281,11.5,11.5,85,0.00,CLR,,0.13,WeatherDisplay:10.37,2013-09-19 18:20:00,
2013-09-19 13:25:00,69.0,64.3,29.87,WNW,292,11.5,11.5,85,0.00,CLR,,0.13,WeatherDisplay:10.37,2013-09-19 18:25:00,
2013-09-19 13:30:00,69.1,64.1,29.86,WNW,296,10.4,10.4,84,0.00,CLR,,0.13,WeatherDisplay:10.37,2013-09-19 18:30:00,
2013-09-19 13:35:00,69.2,64.2,29.86,WNW,287,3.0,13.0,84,0.00,CLR,,0.13,WeatherDisplay:10.37,2013-09-19 18:35:00,
2013-09-19 13:40:00,69.4,64.0,29.86,NW,312,11.0,11.0,83,0.00,CLR,,0.13,WeatherDisplay:10.37,2013-09-19 18:40:00,
2013-09-19 13:45:00,69.1,64.4,29.85,WNW,290,3.0,12.0,85,0.00,CLR,,0.13,WeatherDisplay:10.37,2013-09-19 18:45:00,
2013-09-19 13:50:00,68.9,64.2,29.86,WNW,283,3.0,12.0,85,0.00,CLR,,0.13,WeatherDisplay:10.37,2013-09-19 18:50:00,
2013-09-19 13:55:00,68.8,64.1,29.86,West,279,9.0,9.0,85,0.00,CLR,,0.13,WeatherDisplay:10.37,2013-09-19 18:55:00,
2013-09-19 14:00:00,68.7,64.3,29.85,WNW,287,3.0,10.0,86,0.00,CLR,,0.13,WeatherDisplay:10.37,2013-09-19 19:00:00,
2013-09-19 14:05:00,68.7,63.7,29.85,WNW,288,5.0,10.0,84,0.00,CLR,,0.13,WeatherDisplay:10.37,2013-09-19 19:05:00,
2013-09-19 14:10:00,68.7,63.7,29.85,West,266,12.7,12.7,84,0.00,CLR,,0.13,WeatherDisplay:10.37,2013-09-19 19:10:00,
2013-09-19 14:15:00,68.6,62.9,29.85,WNW,291,5.0,13.0,82,0.00,CLR,,0.13,WeatherDisplay:10.37,2013-09-19 19:15:00,
2013-09-19 14:20:00,68.4,62.3,29.86,WNW,288,6.0,12.0,81,0.00,CLR,,0.13,WeatherDisplay:10.37,2013-09-19 19:20:00,
2013-09-19 14:25:00,68.2,62.1,29.86,WNW,283,12.7,12.7,81,0.00,CLR,,0.13,WeatherDisplay:10.37,2013-09-19 19:25:00,
2013-09-19 14:30:00,68.1,62.0,29.87,WNW,286,6.0,12.0,81,0.00,CLR,,0.13,WeatherDisplay:10.37,2013-09-19 19:30:00,
2013-09-19 14:35:00,68.0,61.9,29.88,WNW,301,5.8,5.8,81,0.00,CLR,,0.13,WeatherDisplay:10.37,2013-09-19 19:35:00,
2013-09-19 14:40:00,67.9,61.9,29.87,WNW,282,9.2,9.2,81,0.00,CLR,,0.13,WeatherDisplay:10.37,2013-09-19 19:40:00,
2013-09-19 14:45:00,67.9,61.9,29.87,West,280,5.0,8.0,81,0.00,CLR,,0.13,WeatherDisplay:10.37,2013-09-19 19:45:00,
2013-09-19 14:50:00,67.9,61.5,29.87,WNW,299,9.2,9.2,80,0.00,CLR,,0.13,WeatherDisplay:10.37,2013-09-19 19:50:00,
2013-09-19 14:55:00,67.8,61.8,29.86,WNW,284,3.0,10.0,81,0.00,CLR,,0.13,WeatherDisplay:10.37,2013-09-19 19:55:00,
2013-09-19 15:00:00,67.5,62.2,29.86,West,269,8.1,8.1,83,0.01,RA,,0.14,WeatherDisplay:10.37,2013-09-19 20:00:00,
2013-09-19 15:05:00,67.1,62.1,29.86,WNW,284,2.0,4.0,84,0.00,RA,,0.14,WeatherDisplay:10.37,2013-09-19 20:05:00,
2013-09-19 15:10:00,66.6,62.3,29.85,WNW,295,2.0,4.0,86,0.00,RA,,0.15,WeatherDisplay:10.37,2013-09-19 20:10:00,
2013-09-19 15:15:00,66.2,62.2,29.84,WNW,297,2.0,6.0,87,0.00,RA,,0.15,WeatherDisplay:10.37,2013-09-19 20:15:00,
2013-09-19 15:20:00,65.8,62.1,29.84,West,271,5.8,5.8,88,0.03,RA,,0.16,WeatherDisplay:10.37,2013-09-19 20:20:00,
2013-09-19 15:25:00,65.6,62.3,29.83,WNW,290,5.0,9.0,89,0.00,RA,,0.16,WeatherDisplay:10.37,2013-09-19 20:25:00,
2013-09-19 15:30:00,65.5,61.9,29.84,NW,304,8.1,8.1,88,0.03,CLR,,0.16,WeatherDisplay:10.37,2013-09-19 20:30:00,
2013-09-19 15:35:00,65.5,61.5,29.84,WNW,290,5.0,10.0,87,0.00,CLR,,0.16,WeatherDisplay:10.37,2013-09-19 20:35:00,
2013-09-19 15:40:00,65.6,60.9,29.83,WNW,295,5.0,12.0,85,0.00,CLR,,0.16,WeatherDisplay:10.37,2013-09-19 20:40:00,
2013-09-19 15:45:00,65.7,61.1,29.83,WNW,291,5.0,10.0,85,0.00,CLR,,0.16,WeatherDisplay:10.37,2013-09-19 20:45:00,
2013-09-19 15:50:00,65.9,60.9,29.84,WNW,296,13.8,13.8,84,0.03,CLR,,0.16,WeatherDisplay:10.37,2013-09-19 20:50:00,
2013-09-19 15:55:00,66.2,59.9,29.83,WNW,287,6.0,13.0,80,0.00,CLR,,0.16,WeatherDisplay:10.37,2013-09-19 20:55:00,
2013-09-19 16:00:00,66.6,59.9,29.83,SSE,164,10.4,10.4,79,0.02,CLR,,0.16,WeatherDisplay:10.37,2013-09-19 21:00:00,
2013-09-19 16:05:00,66.9,59.9,29.83,WNW,294,6.0,12.0,78,0.00,CLR,,0.16,WeatherDisplay:10.37,2013-09-19 21:05:00,
2013-09-19 16:10:00,67.5,59.7,29.83,NW,319,13.8,13.8,76,0.01,CLR,,0.16,WeatherDisplay:10.37,2013-09-19 21:10:00,
2013-09-19 16:15:00,67.8,59.2,29.83,NW,324,10.4,10.4,74,0.01,CLR,,0.16,WeatherDisplay:10.37,2013-09-19 21:15:00,
2013-09-19 16:20:00,68.1,59.1,29.83,WNW,289,6.0,13.0,73,0.00,CLR,,0.16,WeatherDisplay:10.37,2013-09-19 21:20:00,
2013-09-19 16:25:00,68.6,58.8,29.83,NW,304,9.2,9.2,71,0.00,CLR,,0.16,WeatherDisplay:10.37,2013-09-19 21:25:00,
2013-09-19 16:30:00,69.0,58.4,29.83,WSW,246,11.5,11.5,69,0.00,CLR,,0.16,WeatherDisplay:10.37,2013-09-19 21:30:00,
2013-09-19 16:35:00,69.5,57.7,29.83,West,280,9.0,16.0,66,0.00,CLR,,0.16,WeatherDisplay:10.37,2013-09-19 21:35:00,
2013-09-19 16:40:00,70.0,56.4,29.84,WNW,289,7.0,20.0,62,0.00,CLR,,0.16,WeatherDisplay:10.37,2013-09-19 21:40:00,
2013-09-19 16:45:00,70.2,56.1,29.84,WNW,291,8.0,13.0,61,0.00,CLR,,0.16,WeatherDisplay:10.37,2013-09-19 21:45:00,
2013-09-19 16:50:00,70.3,53.9,29.84,WNW,288,7.0,16.0,56,0.00,CLR,,0.16,WeatherDisplay:10.37,2013-09-19 21:50:00,
2013-09-19 16:55:00,70.4,54.0,29.85,WNW,298,12.7,12.7,56,0.00,CLR,,0.16,WeatherDisplay:10.37,2013-09-19 21:55:00,
2013-09-19 17:00:00,71.0,54.5,29.84,NW,311,6.0,20.0,56,0.00,CLR,,0.16,WeatherDisplay:10.37,2013-09-19 22:00:00,
2013-09-19 17:05:00,71.9,54.3,29.85,NNW,331,11.5,11.5,54,0.00,CLR,,0.16,WeatherDisplay:10.37,2013-09-19 22:05:00,
2013-09-19 17:10:00,72.2,54.1,29.85,WNW,302,7.0,13.0,53,0.00,CLR,,0.16,WeatherDisplay:10.37,2013-09-19 22:10:00,
2013-09-19 17:15:00,72.9,54.7,29.85,WNW,303,3.0,12.0,53,0.00,CLR,,0.16,WeatherDisplay:10.37,2013-09-19 22:15:00,
2013-09-19 17:20:00,73.5,54.3,29.86,West,277,9.2,9.2,51,0.00,CLR,,0.16,WeatherDisplay:10.37,2013-09-19 22:20:00,
2013-09-19 17:25:00,73.0,52.7,29.86,WNW,296,12.0,24.0,49,0.00,CLR,,0.16,WeatherDisplay:10.37,2013-09-19 22:25:00,
2013-09-19 17:30:00,71.3,51.7,29.87,WNW,294,8.0,24.0,50,0.00,CLR,,0.16,WeatherDisplay:10.37,2013-09-19 22:30:00,
2013-09-19 17:35:00,70.7,52.7,29.87,West,269,19.6,19.6,53,0.00,CLR,,0.16,WeatherDisplay:10.37,2013-09-19 22:35:00,
2013-09-19 17:40:00,70.6,53.1,29.88,NNW,347,11.5,11.5,54,0.00,CLR,,0.16,WeatherDisplay:10.37,2013-09-19 22:40:00,
2013-09-19 17:45:00,70.3,52.9,29.88,WNW,299,8.0,16.0,54,0.00,CLR,,0.16,WeatherDisplay:10.37,2013-09-19 22:45:00,
2013-09-19 17:50:00,69.4,52.0,29.87,NW,321,17.3,17.3,54,0.00,CLR,,0.16,WeatherDisplay:10.37,2013-09-19 22:50:00,
2013-09-19 17:55:00,68.8,52.0,29.88,NW,319,11.5,11.5,55,0.00,CLR,,0.16,WeatherDisplay:10.37,2013-09-19 22:55:00,
2013-09-19 18:00:00,68.4,51.6,29.88,NW,306,5.0,12.0,55,0.00,CLR,,0.16,WeatherDisplay:10.37,2013-09-19 23:00:00,
2013-09-19 18:05:00,68.0,51.2,29.89,WNW,295,12.7,12.7,55,0.00,CLR,,0.16,WeatherDisplay:10.37,2013-09-19 23:05:00,
2013-09-19 18:10:00,67.8,51.0,29.89,NW,312,5.0,12.0,55,0.00,CLR,,0.16,WeatherDisplay:10.37,2013-09-19 23:10:00,
2013-09-19 18:15:00,67.7,50.5,29.89,NNW,342,10.0,10.0,54,0.00,CLR,,0.16,WeatherDisplay:10.37,2013-09-19 23:15:00,
2013-09-19 18:20:00,67.6,50.4,29.89,West,265,9.2,9.2,54,0.00,CLR,,0.16,WeatherDisplay:10.37,2013-09-19 23:20:00,
2013-09-19 18:25:00,67.5,49.8,29.89,NW,321,5.0,10.0,53,0.00,CLR,,0.16,WeatherDisplay:10.37,2013-09-19 23:25:00,
2013-09-19 18:30:00,67.4,49.2,29.89,North,5,5.8,5.8,52,0.00,CLR,,0.16,WeatherDisplay:10.37,2013-09-19 23:30:00,
2013-09-19 18:35:00,67.3,49.6,29.89,NNW,328,3.0,6.0,53,0.00,CLR,,0.16,WeatherDisplay:10.37,2013-09-19 23:35:00,
2013-09-19 18:40:00,67.2,49.5,29.89,North,360,8.1,8.1,53,0.00,CLR,,0.16,WeatherDisplay:10.37,2013-09-19 23:40:00,
2013-09-19 18:45:00,67.1,49.9,29.89,NNW,340,10.4,10.4,54,0.00,CLR,,0.16,WeatherDisplay:10.37,2013-09-19 23:45:00,
2013-09-19 18:50:00,67.1,49.9,29.89,NNW,333,6.0,6.0,54,0.00,CLR,,0.16,WeatherDisplay:10.37,2013-09-19 23:50:00,
2013-09-19 18:55:00,67.1,49.9,29.89,NNW,328,2.0,6.0,54,0.00,CLR,,0.16,WeatherDisplay:10.37,2013-09-19 23:55:00,
2013-09-19 19:00:00,67.0,50.3,29.90,NW,325,4.6,4.6,55,0.00,CLR,,0.16,WeatherDisplay:10.37,2013-09-20 00:00:00,
2013-09-19 19:05:00,67.0,50.3,29.91,NNW,328,3.0,5.0,55,0.00,CLR,,0.16,WeatherDisplay:10.37,2013-09-20 00:05:00,
2013-09-19 19:10:00,66.9,50.2,29.92,NNW,327,3.5,3.5,55,0.00,CLR,,0.16,WeatherDisplay:10.37,2013-09-20 00:10:00,
2013-09-19 19:15:00,66.7,50.5,29.92,NW,316,3.5,3.5,56,0.00,CLR,,0.16,WeatherDisplay:10.37,2013-09-20 00:15:00,
2013-09-19 19:20:00,66.5,50.3,29.92,NW,312,2.0,5.0,56,0.00,CLR,,0.16,WeatherDisplay:10.37,2013-09-20 00:20:00,
2013-09-19 19:25:00,66.2,50.5,29.92,WNW,302,2.0,4.0,57,0.00,CLR,,0.16,WeatherDisplay:10.37,2013-09-20 00:25:00,
2013-09-19 19:30:00,65.8,51.1,29.93,West,277,3.5,3.5,59,0.00,CLR,,0.16,WeatherDisplay:10.37,2013-09-20 00:30:00,
2013-09-19 19:35:00,65.3,51.1,29.93,WNW,298,8.1,8.1,60,0.00,CLR,,0.16,WeatherDisplay:10.37,2013-09-20 00:35:00,
2013-09-19 19:40:00,64.9,51.1,29.94,West,280,3.0,7.0,61,0.00,CLR,,0.16,WeatherDisplay:10.37,2013-09-20 00:40:00,
2013-09-19 19:45:00,64.5,51.2,29.94,WNW,288,3.5,3.5,62,0.00,CLR,,0.16,WeatherDisplay:10.37,2013-09-20 00:45:00,
2013-09-19 19:50:00,64.3,51.4,29.94,WNW,290,2.0,7.0,63,0.00,CLR,,0.16,WeatherDisplay:10.37,2013-09-20 00:50:00,
2013-09-19 19:55:00,64.0,51.1,29.94,NW,321,4.0,4.0,63,0.00,CLR,,0.16,WeatherDisplay:10.37,2013-09-20 00:55:00,
2013-09-19 20:00:00,63.8,51.4,29.95,West,280,1.0,4.0,64,0.00,CLR,,0.16,WeatherDisplay:10.37,2013-09-20 01:00:00,
2013-09-19 20:05:00,63.5,51.9,29.95,West,270,4.0,4.0,66,0.00,CLR,,0.16,WeatherDisplay:10.37,2013-09-20 01:05:00,
2013-09-19 20:10:00,63.1,52.0,29.94,West,272,3.5,3.5,67,0.00,CLR,,0.16,WeatherDisplay:10.37,2013-09-20 01:10:00,
2013-09-19 20:15:00,62.8,52.1,29.95,West,268,10.4,10.4,68,0.00,CLR,,0.16,WeatherDisplay:10.37,2013-09-20 01:15:00,
2013-09-19 20:20:00,62.6,52.3,29.95,WNW,282,3.0,7.0,69,0.00,CLR,,0.16,WeatherDisplay:10.37,2013-09-20 01:20:00,
2013-09-19 20:25:00,62.3,52.0,29.96,West,278,5.0,7.0,69,0.00,CLR,,0.16,WeatherDisplay:10.37,2013-09-20 01:25:00,
2013-09-19 20:30:00,62.0,52.5,29.96,WNW,284,6.0,6.0,71,0.00,CLR,,0.16,WeatherDisplay:10.37,2013-09-20 01:30:00,
2013-09-19 20:35:00,61.9,52.4,29.96,WNW,292,3.0,9.0,71,0.00,CLR,,0.16,WeatherDisplay:10.37,2013-09-20 01:35:00,
2013-09-19 20:40:00,61.7,52.6,29.97,NW,313,8.1,8.1,72,0.00,CLR,,0.16,WeatherDisplay:10.37,2013-09-20 01:40:00,
2013-09-19 20:45:00,61.6,52.9,29.97,West,269,11.5,11.5,73,0.00,CLR,,0.16,WeatherDisplay:10.37,2013-09-20 01:45:00,
2013-09-19 20:50:00,61.4,52.7,29.98,West,273,6.9,6.9,73,0.00,CLR,,0.16,WeatherDisplay:10.37,2013-09-20 01:50:00,
2013-09-19 20:55:00,61.2,52.8,29.98,WNW,286,5.0,8.0,74,0.00,CLR,,0.16,WeatherDisplay:10.37,2013-09-20 01:55:00,
2013-09-19 21:00:00,60.9,52.6,29.98,WNW,283,5.0,7.0,74,0.00,CLR,,0.16,WeatherDisplay:10.37,2013-09-20 02:00:00,
2013-09-19 21:05:00,60.7,52.7,29.99,WNW,295,8.1,8.1,75,0.00,CLR,,0.16,WeatherDisplay:10.37,2013-09-20 02:05:00,
2013-09-19 21:10:00,60.5,52.9,29.99,West,277,5.8,5.8,76,0.00,CLR,,0.16,WeatherDisplay:10.37,2013-09-20 02:10:00,
2013-09-19 21:15:00,60.3,52.7,29.99,WNW,288,2.0,8.0,76,0.00,CLR,,0.16,WeatherDisplay:10.37,2013-09-20 02:15:00,
2013-09-19 21:20:00,60.1,52.9,30.00,NW,304,5.8,5.8,77,0.00,CLR,,0.16,WeatherDisplay:10.37,2013-09-20 02:20:00,
2013-09-19 21:25:00,60.0,53.1,30.00,West,279,3.0,6.0,78,0.00,CLR,,0.16,WeatherDisplay:10.37,2013-09-20 02:25:00,
2013-09-19 21:30:00,59.9,53.0,30.00,West,277,3.0,7.0,78,0.00,CLR,,0.16,WeatherDisplay:10.37,2013-09-20 02:30:00,
2013-09-19 21:35:00,59.8,52.9,30.01,West,279,3.0,7.0,78,0.00,CLR,,0.16,WeatherDisplay:10.37,2013-09-20 02:35:00,
2013-09-19 21:40:00,59.8,53.3,30.01,West,277,3.0,7.0,79,0.00,CLR,,0.16,WeatherDisplay:10.37,2013-09-20 02:40:00,
2013-09-19 21:45:00,59.7,53.2,30.01,West,277,4.0,4.0,79,0.00,CLR,,0.16,WeatherDisplay:10.37,2013-09-20 02:45:00,
2013-09-19 21:50:00,59.7,53.2,30.01,West,268,7.0,7.0,79,0.00,CLR,,0.16,WeatherDisplay:10.37,2013-09-20 02:50:00,
2013-09-19 21:55:00,59.7,52.8,30.01,West,281,3.0,7.0,78,0.00,CLR,,0.16,WeatherDisplay:10.37,2013-09-20 02:55:00,
2013-09-19 22:00:00,59.5,53.0,30.02,WNW,285,6.0,6.0,79,0.00,CLR,,0.16,WeatherDisplay:10.37,2013-09-20 03:00:00,
2013-09-19 22:05:00,59.3,53.1,30.02,West,281,5.0,8.0,80,0.00,CLR,,0.16,WeatherDisplay:10.37,2013-09-20 03:05:00,
2013-09-19 22:10:00,59.1,52.9,30.02,West,279,5.0,9.0,80,0.00,CLR,,0.16,WeatherDisplay:10.37,2013-09-20 03:10:00,
2013-09-19 22:15:00,58.9,52.7,30.02,West,280,5.0,8.0,80,0.00,CLR,,0.16,WeatherDisplay:10.37,2013-09-20 03:15:00,
2013-09-19 22:20:00,58.8,52.6,30.02,West,280,5.0,9.0,80,0.00,CLR,,0.16,WeatherDisplay:10.37,2013-09-20 03:20:00,
2013-09-19 22:25:00,58.7,52.5,30.02,West,279,6.9,6.9,80,0.00,CLR,,0.16,WeatherDisplay:10.37,2013-09-20 03:25:00,
2013-09-19 22:30:00,58.7,52.5,30.03,West,281,3.0,8.0,80,0.00,CLR,,0.16,WeatherDisplay:10.37,2013-09-20 03:30:00,
2013-09-19 22:35:00,58.5,52.4,30.03,WNW,282,2.0,8.0,80,0.00,CLR,,0.16,WeatherDisplay:10.37,2013-09-20 03:35:00,
2013-09-19 22:40:00,58.4,52.3,30.03,West,277,8.1,8.1,80,0.00,CLR,,0.16,WeatherDisplay:10.37,2013-09-20 03:40:00,
2013-09-19 22:45:00,58.3,52.4,30.04,WNW,283,3.0,7.0,81,0.00,CLR,,0.16,WeatherDisplay:10.37,2013-09-20 03:45:00,
2013-09-19 22:50:00,58.2,52.4,30.04,WNW,282,2.0,6.0,81,0.00,CLR,,0.16,WeatherDisplay:10.37,2013-09-20 03:50:00,
2013-09-19 22:55:00,58.1,52.6,30.03,West,275,3.0,7.0,82,0.00,CLR,,0.16,WeatherDisplay:10.37,2013-09-20 03:55:00,
2013-09-19 23:00:00,58.1,52.6,30.04,West,278,3.0,7.0,82,0.00,CLR,,0.16,WeatherDisplay:10.37,2013-09-20 04:00:00,
2013-09-19 23:01:00,58.1,52.6,30.04,West,280,5.8,5.8,82,0.00,CLR,,0.16,WeatherDisplay:10.37,2013-09-20 04:01:00,
2013-09-19 23:02:00,58.1,52.6,30.04,West,276,3.5,3.5,82,0.00,CLR,,0.16,WeatherDisplay:10.37,2013-09-20 04:02:00,
2013-09-19 23:07:00,58.1,52.6,30.04,WSW,253,5.8,5.8,82,0.00,CLR,,0.16,WeatherDisplay:10.37,2013-09-20 04:07:00,
2013-09-19 23:12:00,58.1,52.6,30.04,West,275,3.5,3.5,82,0.00,CLR,,0.16,WeatherDisplay:10.37,2013-09-20 04:12:00,
2013-09-19 23:17:00,58.1,53.0,30.04,WNW,286,3.5,3.5,83,0.00,CLR,,0.16,WeatherDisplay:10.37,2013-09-20 04:17:00,
2013-09-19 23:22:00,58.2,52.7,30.04,West,277,7.0,7.0,82,0.00,CLR,,0.16,WeatherDisplay:10.37,2013-09-20 04:22:00,
2013-09-19 23:27:00,58.2,52.7,30.05,WNW,299,3.5,3.5,82,0.00,CLR,,0.16,WeatherDisplay:10.37,2013-09-20 04:27:00,
2013-09-19 23:32:00,58.0,52.5,30.05,WNW,282,3.5,3.5,82,0.00,CLR,,0.16,WeatherDisplay:10.37,2013-09-20 04:32:00,
2013-09-19 23:37:00,57.8,52.7,30.05,WNW,286,3.5,3.5,83,0.00,CLR,,0.16,WeatherDisplay:10.37,2013-09-20 04:37:00,
2013-09-19 23:42:00,57.7,52.6,30.05,West,278,3.5,3.5,83,0.00,CLR,,0.16,WeatherDisplay:10.37,2013-09-20 04:42:00,
2013-09-19 23:47:00,57.5,52.4,30.04,West,281,3.5,3.5,83,0.00,CLR,,0.16,WeatherDisplay:10.37,2013-09-20 04:47:00,
2013-09-19 23:52:00,57.3,52.5,30.04,West,275,3.5,3.5,84,0.00,CLR,,0.16,WeatherDisplay:10.37,2013-09-20 04:52:00,
2013-09-19 23:57:00,57.2,52.4,30.05,NNW,329,2.3,2.3,84,0.00,CLR,,0.16,WeatherDisplay:10.37,2013-09-20 04:57:00,